Terminal Aerodrome Forecast
Issued by NWS Memphis, TN

Home | Current Version | Previous Version | Text Only | Print | Product List | Glossary On
Versions: 1 2 3 4 5 6 7 8 9 10 11 12 13 14 15 16 17 18
000
FTUS44 KMEG 221411 AAA
TAFMKL
TAF AMD
KMKL 221411Z 2214/2312 16014G22KT P6SM VCSH SCT050 BKN150
     FM221900 18010KT P6SM -SHRA BKN025 OVC050
     FM230100 32006KT P6SM VCSH BKN008 OVC015
     FM231100 31006KT P6SM BKN010 OVC040=

USA.gov is the U.S. government's official web portal to all federal, state and local government web resources and services.